WSSS

Singapore Changi International Airport

Singapore, Singapore
TAF WSSS 132300Z 1400/1506 02008KT 9999 FEW015CB SCT020 TEMPO 1400/1401 4000 SHRA FEW012CB BKN015 TEMPO 1404/1408 3000 TSRA FEW012CB BKN015
Issued Valid From Valid To
Dec-13 @ 23:00 UTC
(3 hours ago)
Dec-14 @ 00:00 UTC
(2 hours ago)
Dec-15 @ 06:00 UTC
(-1 days ago)
Dec-14 @ 00:00 to Dec-15 @ 06:00
TAF WSSS 132300Z 1400/1506 02008KT 9999 FEW015CB SCT020
Wind Visibility Clouds
20° at 8 knots 10,000+ meters
  • Few at 1,500' AGL
  • Scattered at 2,000' AGL
Expired Click to View Dec-14 @ 00:00 to Dec-14 @ 01:00
TEMPO 1400/1401 4000 SHRA FEW012CB BKN015
Visibility Clouds Conditions
4,007 meters
  • Few at 1,200' AGL
  • Broken at 1,500' AGL
  • Rain
Temporary Dec-14 @ 04:00 to Dec-14 @ 08:00
TEMPO 1404/1408 3000 TSRA FEW012CB BKN015
Visibility Clouds Conditions
2,993 meters
  • Few at 1,200' AGL
  • Broken at 1,500' AGL
  • Thunderstorm
  • Rain
TAF WSSS 132300Z 1400/1506 02008KT 9999 FEW015CB SCT020 TEMPO 1400/1401 4000 SHRA FEW012CB BKN015 TEMPO 1404/1408 3000 TSRA FEW012CB BKN015
Issued Dec-13 @ 23:00 UTC
(3 hours ago)
Valid From Dec-14 @ 00:00 UTC
(2 hours ago)
Valid To Dec-15 @ 06:00 UTC
(-1 days ago)
Dec-14 @ 00:00 - Dec-15 @ 06:00
Wind Visibility
20° at 8 knots 10,000+ meters
Clouds
  • Few at 1,500' AGL
  • Scattered at 2,000' AGL
Dec-14 @ 00:00 - Dec-14 @ 01:00
Clouds
  • Few at 1,200' AGL
  • Broken at 1,500' AGL
Conditions
  • Rain
Temporary Dec-14 @ 04:00 - Dec-14 @ 08:00
Clouds
  • Few at 1,200' AGL
  • Broken at 1,500' AGL
Conditions
  • Thunderstorm
  • Rain